createdAt,value
2022-12-03T00:02:02.870Z,24.52
2022-12-03T00:04:36.160Z,18.73
2022-12-03T00:07:09.346Z,25.12
2022-12-03T00:09:42.882Z,30.00
2022-12-03T00:12:16.562Z,27.98
2022-12-03T00:14:50.268Z,22.02
2022-12-03T00:17:23.673Z,28.77
2022-12-03T00:19:57.190Z,26.62
2022-12-03T00:22:30.402Z,17.67
2022-12-03T00:25:03.997Z,15.98
2022-12-03T00:27:37.622Z,25.75
2022-12-03T00:30:14.009Z,28.57
2022-12-03T00:32:47.350Z,25.77
2022-12-03T00:35:20.887Z,22.80
2022-12-03T00:37:54.806Z,30.48
2022-12-03T00:40:28.127Z,21.45
2022-12-03T00:43:01.464Z,20.65
2022-12-03T00:45:34.982Z,23.15
2022-12-03T00:48:08.994Z,21.33
2022-12-03T00:50:42.098Z,25.35
2022-12-03T00:53:15.785Z,25.32
2022-12-03T00:55:50.789Z,27.45
2022-12-03T00:58:24.087Z,25.92
2022-12-03T01:00:57.801Z,16.85
2022-12-03T01:03:35.171Z,28.75
2022-12-03T01:06:11.119Z,27.75
2022-12-03T01:08:44.672Z,27.35
2022-12-03T01:11:36.255Z,24.47
2022-12-03T01:14:11.984Z,28.25
2022-12-03T01:16:46.262Z,25.20
2022-12-03T01:19:20.417Z,21.42
2022-12-03T01:21:55.696Z,24.05
2022-12-03T01:24:29.324Z,25.85
2022-12-03T01:27:02.634Z,28.87
2022-12-03T01:29:36.256Z,30.02
2022-12-03T01:32:20.130Z,34.20
2022-12-03T01:34:55.572Z,24.82
2022-12-03T01:37:30.253Z,32.30
2022-12-03T01:40:03.478Z,20.32
2022-12-03T01:42:39.642Z,27.67
2022-12-03T01:45:16.615Z,22.50
2022-12-03T01:47:50.237Z,22.82
2022-12-03T01:50:26.558Z,25.62
2022-12-03T01:53:03.149Z,24.70
2022-12-03T01:55:36.239Z,21.50
2022-12-03T01:58:11.927Z,19.60
2022-12-03T02:00:45.309Z,24.72
2022-12-03T02:03:22.306Z,25.52
2022-12-03T02:05:56.958Z,20.48
2022-12-03T02:08:32.619Z,18.15
2022-12-03T02:11:08.951Z,20.52
2022-12-03T02:13:45.493Z,23.83
2022-12-03T02:16:19.227Z,21.62
2022-12-03T02:18:53.149Z,21.97
2022-12-03T02:21:29.742Z,23.98
2022-12-03T02:24:06.960Z,19.60
2022-12-03T02:26:41.395Z,20.32
2022-12-03T02:29:14.800Z,19.30
2022-12-03T02:31:48.423Z,23.47
2022-12-03T02:34:39.050Z,20.08
2022-12-03T02:37:15.672Z,22.17
2022-12-03T02:39:52.201Z,19.12
2022-12-03T02:42:38.780Z,22.77
2022-12-03T02:45:16.579Z,26.10
2022-12-03T02:47:53.967Z,23.87
2022-12-03T02:50:29.855Z,28.40
2022-12-03T02:53:06.085Z,24.65
2022-12-03T02:55:40.647Z,27.50
2022-12-03T02:58:15.642Z,22.73
2022-12-03T03:00:50.449Z,31.07
2022-12-03T03:03:26.129Z,29.57
2022-12-03T03:06:00.618Z,23.30
2022-12-03T03:08:34.803Z,22.95
2022-12-03T03:11:09.283Z,22.62
2022-12-03T03:13:43.519Z,22.55
2022-12-03T03:16:17.447Z,19.40
2022-12-03T03:18:51.970Z,24.82
2022-12-03T03:21:25.818Z,25.02
2022-12-03T03:23:59.304Z,24.92
2022-12-03T03:26:33.071Z,26.23
2022-12-03T03:29:07.766Z,28.62
2022-12-03T03:31:42.605Z,25.23
2022-12-03T03:34:18.485Z,20.43
2022-12-03T03:36:52.059Z,29.30
2022-12-03T03:39:25.666Z,22.05
2022-12-03T03:42:09.479Z,23.60
2022-12-03T03:44:48.198Z,24.02
2022-12-03T03:47:23.415Z,26.20
2022-12-03T03:50:06.525Z,22.02
2022-12-03T03:52:42.113Z,20.62
2022-12-03T03:55:16.356Z,27.45
2022-12-03T03:57:50.599Z,24.63
2022-12-03T04:00:24.058Z,28.15
2022-12-03T04:02:57.728Z,16.90
2022-12-03T04:05:31.511Z,24.15
2022-12-03T04:08:05.509Z,24.27
2022-12-03T04:10:56.676Z,27.00
2022-12-03T04:13:30.646Z,24.87
2022-12-03T04:16:04.258Z,17.02
2022-12-03T04:18:44.407Z,23.50
2022-12-03T04:21:39.026Z,24.12
2022-12-03T04:24:14.342Z,24.23
2022-12-03T04:27:06.770Z,19.73
2022-12-03T04:29:42.693Z,28.42
2022-12-03T04:32:34.245Z,17.55
2022-12-03T04:35:28.422Z,22.17
2022-12-03T04:38:03.303Z,21.07
2022-12-03T04:40:54.353Z,23.02
2022-12-03T04:43:30.835Z,24.25
2022-12-03T04:46:05.615Z,25.17
2022-12-03T04:48:39.637Z,24.47
2022-12-03T04:51:13.533Z,25.92
2022-12-03T04:53:47.028Z,26.15
2022-12-03T04:56:21.281Z,21.73
2022-12-03T04:58:55.272Z,20.52
2022-12-03T05:01:29.580Z,23.90
2022-12-03T05:04:07.347Z,20.02
2022-12-03T05:06:41.079Z,24.85
2022-12-03T05:09:14.855Z,26.85
2022-12-03T05:11:49.368Z,22.52
2022-12-03T05:14:23.128Z,21.80
2022-12-03T05:16:56.528Z,17.77
2022-12-03T05:19:49.532Z,26.02
2022-12-03T05:22:23.064Z,22.85
2022-12-03T05:24:56.731Z,27.85
2022-12-03T05:27:30.783Z,23.83
2022-12-03T05:30:04.275Z,27.52
2022-12-03T05:32:38.618Z,26.82
2022-12-03T05:35:14.351Z,26.62
2022-12-03T05:37:48.107Z,24.32
2022-12-03T05:40:23.459Z,19.40
2022-12-03T05:42:57.771Z,22.27
2022-12-03T05:45:33.220Z,19.30
2022-12-03T05:48:08.582Z,27.82
2022-12-03T05:50:44.385Z,25.02
2022-12-03T05:53:21.746Z,26.55
2022-12-03T05:55:54.881Z,27.98
2022-12-03T05:58:28.151Z,18.57
2022-12-03T06:01:01.651Z,21.62
2022-12-03T06:03:35.178Z,16.67
2022-12-03T06:06:09.103Z,18.55
2022-12-03T06:08:42.209Z,22.95
2022-12-03T06:11:15.624Z,20.02
2022-12-03T06:13:48.970Z,22.40
2022-12-03T06:16:22.289Z,23.35
2022-12-03T06:18:55.964Z,17.48
2022-12-03T06:21:29.347Z,19.75
2022-12-03T06:24:02.448Z,13.50
2022-12-03T06:26:35.494Z,20.08
2022-12-03T06:29:10.446Z,16.70
2022-12-03T06:31:43.913Z,19.00
2022-12-03T06:34:17.598Z,19.42
2022-12-03T06:36:51.061Z,17.40
2022-12-03T06:39:24.315Z,24.60
2022-12-03T06:41:57.934Z,14.30
2022-12-03T06:44:31.124Z,19.10
2022-12-03T06:47:04.548Z,26.12
2022-12-03T06:49:37.853Z,17.02
2022-12-03T06:52:11.440Z,21.52
2022-12-03T06:54:44.795Z,24.65
2022-12-03T06:57:19.201Z,24.92
2022-12-03T06:59:53.175Z,20.37
2022-12-03T07:02:26.970Z,12.80
2022-12-03T07:05:00.764Z,19.15
2022-12-03T07:07:34.120Z,21.40
2022-12-03T07:10:09.239Z,21.15
2022-12-03T07:12:43.535Z,22.30
2022-12-03T07:15:17.436Z,25.70
2022-12-03T07:17:51.253Z,14.07
2022-12-03T07:20:24.454Z,21.15
2022-12-03T07:22:58.078Z,26.62
2022-12-03T07:25:31.242Z,24.80
2022-12-03T07:28:04.503Z,21.65
2022-12-03T07:30:37.646Z,17.05
2022-12-03T07:33:11.356Z,18.07
2022-12-03T07:35:45.370Z,20.85
2022-12-03T07:38:20.665Z,25.37
2022-12-03T07:40:53.810Z,23.92
2022-12-03T07:43:27.258Z,22.50
2022-12-03T07:46:00.911Z,21.33
2022-12-03T07:48:34.347Z,24.70
2022-12-03T07:51:09.582Z,13.83
2022-12-03T07:53:43.198Z,11.20
2022-12-03T07:56:16.611Z,15.63
2022-12-03T07:58:50.086Z,25.92
2022-12-03T08:01:23.936Z,21.48
2022-12-03T08:03:57.203Z,20.20
2022-12-03T08:06:31.077Z,25.92
2022-12-03T08:09:04.509Z,23.20
2022-12-03T08:11:38.502Z,24.40
2022-12-03T08:14:14.603Z,17.80
2022-12-03T08:16:49.326Z,13.50
2022-12-03T08:19:22.896Z,23.55
2022-12-03T08:22:01.044Z,20.95
2022-12-03T08:24:31.657Z,22.82
2022-12-03T08:27:06.744Z,30.52
2022-12-03T08:29:39.934Z,27.73
2022-12-03T08:32:14.153Z,17.50
2022-12-03T08:34:47.698Z,18.52
2022-12-03T08:37:22.213Z,24.37
2022-12-03T08:39:56.915Z,24.40
2022-12-03T08:42:43.903Z,20.90
2022-12-03T08:45:42.766Z,18.25
2022-12-03T08:48:33.442Z,18.37
2022-12-03T08:51:14.957Z,27.05
2022-12-03T08:53:50.294Z,28.55
2022-12-03T08:56:25.711Z,22.50
2022-12-03T08:59:02.170Z,15.80
2022-12-03T09:01:40.586Z,17.92
2022-12-03T09:04:27.762Z,20.92
2022-12-03T09:07:01.064Z,20.27
2022-12-03T09:09:34.798Z,20.10
2022-12-03T09:12:09.855Z,24.40
2022-12-03T09:14:42.949Z,22.58
2022-12-03T09:17:16.184Z,16.70
2022-12-03T09:19:49.624Z,32.60
2022-12-03T09:22:22.641Z,28.60
2022-12-03T09:24:56.470Z,23.15
2022-12-03T09:27:29.846Z,24.95
2022-12-03T09:30:03.186Z,23.45
2022-12-03T09:32:36.735Z,12.85
2022-12-03T09:35:12.922Z,28.55
2022-12-03T09:37:46.065Z,27.02
2022-12-03T09:40:19.835Z,24.43
2022-12-03T09:42:54.200Z,25.43
2022-12-03T09:45:27.870Z,22.48
2022-12-03T09:48:03.758Z,20.95
2022-12-03T09:50:40.036Z,22.82
2022-12-03T09:53:16.501Z,21.20
2022-12-03T09:55:50.493Z,17.80
2022-12-03T09:58:24.127Z,19.02
2022-12-03T10:00:57.952Z,29.23
2022-12-03T10:03:33.396Z,24.95
2022-12-03T10:06:07.133Z,23.02
2022-12-03T10:08:40.660Z,27.67
2022-12-03T10:11:13.938Z,20.02
2022-12-03T10:13:47.791Z,20.97
2022-12-03T10:16:22.504Z,24.10
2022-12-03T10:18:58.290Z,19.92
2022-12-03T10:21:35.552Z,15.98
2022-12-03T10:24:23.339Z,21.77
2022-12-03T10:26:59.019Z,22.10
2022-12-03T10:29:34.831Z,14.60
2022-12-03T10:32:11.903Z,22.45
2022-12-03T10:34:45.937Z,29.87
2022-12-03T10:37:20.758Z,22.80
2022-12-03T10:40:00.256Z,14.75
2022-12-03T10:42:35.788Z,28.20
2022-12-03T10:45:21.277Z,17.55
2022-12-03T10:48:09.543Z,21.80
2022-12-03T10:50:51.848Z,22.67
2022-12-03T10:53:27.802Z,18.30
2022-12-03T10:56:04.234Z,17.65
2022-12-03T10:58:40.812Z,21.45
2022-12-03T11:01:19.605Z,18.65
2022-12-03T11:03:55.928Z,26.95
2022-12-03T11:06:34.729Z,17.12
2022-12-03T11:09:15.501Z,18.77
2022-12-03T11:11:49.549Z,17.92
2022-12-03T11:15:11.318Z,21.73
2022-12-03T11:17:52.783Z,21.95
2022-12-03T11:21:11.365Z,18.90
2022-12-03T11:24:32.884Z,17.70
2022-12-03T11:30:10.610Z,22.90
2022-12-03T11:33:35.503Z,19.52
2022-12-03T11:36:36.367Z,15.88
2022-12-03T11:38:58.524Z,25.82
2022-12-03T11:42:06.156Z,28.10
2022-12-03T11:44:39.826Z,25.75
2022-12-03T11:47:18.192Z,21.37
2022-12-03T11:49:52.157Z,19.20
2022-12-03T11:52:31.544Z,18.07
2022-12-03T11:55:08.599Z,20.48
2022-12-03T11:57:44.920Z,21.15
2022-12-03T12:00:27.191Z,21.50
2022-12-03T12:03:01.513Z,23.27
2022-12-03T12:05:36.639Z,24.85
2022-12-03T12:08:12.919Z,18.27
2022-12-03T12:10:49.490Z,25.60
2022-12-03T12:13:54.690Z,22.37
2022-12-03T12:16:51.899Z,21.70
2022-12-03T12:22:39.621Z,20.08
2022-12-03T12:25:37.221Z,21.90
2022-12-03T12:28:11.086Z,17.87
2022-12-03T12:30:44.592Z,16.50
2022-12-03T12:33:23.481Z,18.23
2022-12-03T12:35:57.755Z,23.55
2022-12-03T12:38:31.110Z,23.90
2022-12-03T12:41:08.812Z,18.48
2022-12-03T12:43:42.561Z,20.77
2022-12-03T12:46:46.628Z,26.10
2022-12-03T12:48:55.210Z,18.70
2022-12-03T12:51:27.913Z,29.72
2022-12-03T12:54:01.501Z,19.95
2022-12-03T12:56:35.064Z,21.77
2022-12-03T12:59:14.054Z,23.85
2022-12-03T13:01:48.958Z,18.52
2022-12-03T13:04:24.135Z,22.02
2022-12-03T13:06:58.776Z,29.12
2022-12-03T13:09:34.263Z,23.95
2022-12-03T13:12:12.397Z,22.10
2022-12-03T13:14:46.182Z,25.43
2022-12-03T13:17:23.525Z,22.37
2022-12-03T13:20:07.262Z,23.90
2022-12-03T13:22:34.480Z,21.45
2022-12-03T13:25:32.594Z,26.10
2022-12-03T13:27:53.656Z,17.65
2022-12-03T13:30:28.818Z,21.87
2022-12-03T13:33:03.022Z,21.35
2022-12-03T13:35:39.482Z,28.32
2022-12-03T13:38:16.821Z,19.40
2022-12-03T13:40:54.768Z,21.05
2022-12-03T13:43:32.110Z,26.00
2022-12-03T13:46:05.380Z,22.13
2022-12-03T13:48:38.778Z,19.27
2022-12-03T13:51:18.047Z,27.15
2022-12-03T13:53:51.555Z,19.90
2022-12-03T13:56:28.890Z,16.65
2022-12-03T13:59:04.523Z,28.23
2022-12-03T14:01:37.849Z,20.27
2022-12-03T14:04:11.810Z,20.30
2022-12-03T14:06:45.302Z,23.65
2022-12-03T14:09:19.043Z,21.40
2022-12-03T14:12:09.923Z,18.12
2022-12-03T14:14:43.519Z,25.75
2022-12-03T14:17:17.116Z,33.40
2022-12-03T14:19:50.812Z,26.55
2022-12-03T14:22:25.524Z,32.05
2022-12-03T14:24:59.381Z,26.07
2022-12-03T14:27:34.782Z,33.33
2022-12-03T14:30:10.706Z,28.30
2022-12-03T14:32:44.208Z,24.35
2022-12-03T14:35:17.987Z,32.70
2022-12-03T14:37:51.473Z,26.48
2022-12-03T14:40:25.220Z,30.97
2022-12-03T14:42:58.812Z,22.35
2022-12-03T14:45:33.372Z,24.60
2022-12-03T14:48:07.414Z,21.52
2022-12-03T14:50:40.668Z,21.95
2022-12-03T14:53:13.915Z,23.92
2022-12-03T14:55:48.269Z,22.85
2022-12-03T14:58:21.643Z,29.87
2022-12-03T15:00:55.154Z,25.55
2022-12-03T15:03:28.437Z,19.67
2022-12-03T15:06:01.740Z,24.98
2022-12-03T15:08:35.050Z,30.52
2022-12-03T15:11:08.810Z,26.95
2022-12-03T15:13:51.325Z,25.65
2022-12-03T15:16:26.176Z,30.48
2022-12-03T15:18:59.864Z,32.28
2022-12-03T15:21:54.474Z,27.75
2022-12-03T15:24:31.073Z,25.82
2022-12-03T15:27:05.659Z,31.97
2022-12-03T15:29:39.965Z,26.35
2022-12-03T15:32:16.478Z,25.02
2022-12-03T15:34:53.573Z,26.95
2022-12-03T15:37:28.142Z,24.15
2022-12-03T15:40:01.666Z,18.23
2022-12-03T15:42:35.589Z,29.05
2022-12-03T15:45:15.172Z,29.52
2022-12-03T15:47:45.674Z,23.47
2022-12-03T15:50:22.222Z,33.50
2022-12-03T15:52:57.425Z,26.48
2022-12-03T15:55:31.018Z,37.70
2022-12-03T15:58:04.393Z,28.25
2022-12-03T16:00:38.045Z,22.22
2022-12-03T16:03:11.409Z,22.98
2022-12-03T16:05:45.049Z,26.27
2022-12-03T16:08:18.593Z,24.00
2022-12-03T16:10:52.395Z,27.27
2022-12-03T16:13:34.977Z,31.85
2022-12-03T16:16:10.923Z,28.12
2022-12-03T16:18:44.266Z,32.42
2022-12-03T16:21:20.861Z,26.95
2022-12-03T16:24:10.857Z,26.45
2022-12-03T16:26:44.605Z,26.37
2022-12-03T16:29:18.785Z,30.92
2022-12-03T16:31:52.359Z,28.60
2022-12-03T16:40:14.735Z,30.00
2022-12-03T16:42:48.393Z,21.95
2022-12-03T16:45:55.701Z,28.90
2022-12-03T16:48:29.439Z,31.93
2022-12-03T16:51:07.557Z,25.17
2022-12-03T16:53:40.804Z,33.00
2022-12-03T16:56:15.526Z,31.37
2022-12-03T16:58:48.674Z,33.48
2022-12-03T17:01:23.495Z,29.05
2022-12-03T17:03:58.951Z,40.52
2022-12-03T17:06:34.601Z,30.88
2022-12-03T17:09:08.734Z,26.52
2022-12-03T17:11:43.730Z,25.35
2022-12-03T17:14:17.441Z,21.05
2022-12-03T17:16:50.985Z,27.98
2022-12-03T17:19:25.000Z,19.80
2022-12-03T17:21:59.957Z,19.30
2022-12-03T17:24:33.228Z,16.80
2022-12-03T17:27:08.069Z,15.95
2022-12-03T17:29:41.696Z,12.73
2022-12-03T17:32:15.630Z,15.10
2022-12-03T17:34:49.073Z,20.25
2022-12-03T17:37:22.551Z,16.42
2022-12-03T17:39:56.789Z,13.20
2022-12-03T17:42:30.631Z,12.58
2022-12-03T17:45:04.321Z,11.08
2022-12-03T17:47:37.953Z,12.60
2022-12-03T17:50:13.273Z,12.10
2022-12-03T17:52:46.408Z,14.10
2022-12-03T17:55:28.196Z,15.50
2022-12-03T17:57:55.509Z,12.70
2022-12-03T18:00:28.985Z,14.30
2022-12-03T18:03:02.451Z,11.20
2022-12-03T18:05:35.819Z,15.45
2022-12-03T18:08:09.837Z,12.58
2022-12-03T18:10:43.496Z,9.78
2022-12-03T18:13:16.817Z,9.60
2022-12-03T18:15:50.391Z,11.53
2022-12-03T18:18:23.670Z,11.93
2022-12-03T18:20:58.986Z,16.90
2022-12-03T18:23:33.575Z,13.55
2022-12-03T18:26:07.501Z,12.65
2022-12-03T18:28:41.284Z,11.57
2022-12-03T18:31:16.875Z,10.82
2022-12-03T18:33:50.776Z,13.55
2022-12-03T18:36:25.774Z,12.07
2022-12-03T18:39:01.248Z,13.78
2022-12-03T18:41:36.567Z,12.30
2022-12-03T18:44:12.197Z,16.50
2022-12-03T18:46:53.480Z,12.45
2022-12-03T18:49:22.327Z,12.58
2022-12-03T18:51:59.204Z,14.75
2022-12-03T18:54:31.160Z,11.28
2022-12-03T18:57:04.591Z,14.38
2022-12-03T18:59:38.483Z,16.95
2022-12-03T19:02:38.469Z,15.10
2022-12-03T19:04:51.398Z,14.03
2022-12-03T19:07:25.145Z,10.93
2022-12-03T19:09:58.728Z,14.00
2022-12-03T19:12:32.214Z,22.45
2022-12-03T19:15:06.776Z,14.38
2022-12-03T19:17:40.566Z,14.55
2022-12-03T19:20:15.165Z,7.95
2022-12-03T19:22:48.866Z,15.68
2022-12-03T19:25:22.221Z,10.82
2022-12-03T19:27:57.224Z,13.32
2022-12-03T19:30:30.709Z,16.00
2022-12-03T19:33:03.808Z,9.58
2022-12-03T19:35:41.135Z,12.95
2022-12-03T19:38:14.525Z,15.08
2022-12-03T19:40:47.969Z,10.88
2022-12-03T19:43:21.380Z,14.00
2022-12-03T19:45:55.251Z,14.75
2022-12-03T19:48:30.092Z,10.40
2022-12-03T19:51:26.607Z,15.48
2022-12-03T19:53:40.688Z,17.40
2022-12-03T19:56:15.585Z,15.98
2022-12-03T19:58:49.366Z,19.00
2022-12-03T20:01:25.435Z,12.90
2022-12-03T20:04:00.766Z,11.15
2022-12-03T20:06:37.625Z,11.30
2022-12-03T20:09:13.704Z,13.20
2022-12-03T20:11:47.567Z,9.15
2022-12-03T20:14:22.142Z,9.83
2022-12-03T20:16:56.292Z,17.48
2022-12-03T20:19:30.546Z,14.93
2022-12-03T20:22:04.682Z,11.12
2022-12-03T20:24:39.108Z,11.25
2022-12-03T20:27:13.326Z,13.78
2022-12-03T20:29:50.206Z,15.78
2022-12-03T20:32:24.878Z,18.02
2022-12-03T20:34:59.715Z,13.35
2022-12-03T20:37:34.790Z,15.65
2022-12-03T20:40:11.569Z,13.62
2022-12-03T20:42:49.255Z,19.55
2022-12-03T20:45:23.418Z,12.90
2022-12-03T20:47:57.519Z,12.82
2022-12-03T20:50:31.907Z,17.92
2022-12-03T20:53:23.732Z,11.45
2022-12-03T20:55:42.395Z,17.95
2022-12-03T20:58:16.750Z,14.43
2022-12-03T21:00:51.285Z,13.30
2022-12-03T21:03:25.603Z,12.33
2022-12-03T21:06:02.921Z,11.45
2022-12-03T21:08:41.535Z,12.43
2022-12-03T21:11:13.418Z,15.60
2022-12-03T21:13:47.517Z,20.32
2022-12-03T21:16:45.407Z,15.68
2022-12-03T21:19:00.121Z,15.78
2022-12-03T21:21:37.258Z,24.18
2022-12-03T21:24:12.110Z,18.30
2022-12-03T21:26:45.670Z,14.93
2022-12-03T21:29:19.333Z,18.07
2022-12-03T21:31:52.975Z,16.20
2022-12-03T21:34:31.314Z,16.30
2022-12-03T21:37:01.697Z,15.10
2022-12-03T21:39:35.049Z,16.45
2022-12-03T21:42:25.971Z,16.40
2022-12-03T21:44:43.757Z,22.37
2022-12-03T21:47:20.301Z,26.70
2022-12-03T21:49:54.116Z,19.02
2022-12-03T21:52:27.799Z,12.98
2022-12-03T21:55:01.302Z,18.67
2022-12-03T21:57:35.926Z,15.75
2022-12-03T22:00:11.940Z,13.55
2022-12-03T22:02:45.673Z,13.10
2022-12-03T22:05:19.715Z,14.35
2022-12-03T22:07:53.021Z,11.95
2022-12-03T22:10:26.559Z,15.55
2022-12-03T22:13:00.084Z,24.15
2022-12-03T22:15:33.639Z,21.60
2022-12-03T22:18:07.015Z,19.00
2022-12-03T22:20:41.764Z,21.12
2022-12-03T22:23:15.418Z,16.40
2022-12-03T22:25:48.480Z,19.02
2022-12-03T22:28:21.914Z,15.70
2022-12-03T22:30:55.384Z,15.25
2022-12-03T22:33:29.205Z,14.93
2022-12-03T22:36:04.639Z,16.07
2022-12-03T22:38:38.060Z,16.20
2022-12-03T22:41:13.258Z,21.90
2022-12-03T22:43:47.766Z,22.90
2022-12-03T22:46:21.184Z,23.40
2022-12-03T22:48:54.529Z,21.48
2022-12-03T22:51:29.192Z,15.03
2022-12-03T22:54:03.395Z,29.23
2022-12-03T22:56:37.482Z,18.30
2022-12-03T22:59:10.813Z,19.95
2022-12-03T23:01:44.431Z,25.23
2022-12-03T23:04:18.049Z,22.05
2022-12-03T23:06:51.515Z,19.15
2022-12-03T23:09:24.898Z,19.05
2022-12-03T23:11:58.675Z,13.70
2022-12-03T23:14:32.429Z,20.27
2022-12-03T23:17:05.887Z,23.15
2022-12-03T23:19:39.433Z,20.23
2022-12-03T23:22:13.019Z,18.98
2022-12-03T23:24:46.614Z,28.67
2022-12-03T23:27:20.276Z,18.20
2022-12-03T23:29:54.367Z,19.02
2022-12-03T23:32:28.008Z,19.20
2022-12-03T23:35:01.646Z,17.90
2022-12-03T23:37:35.512Z,16.65
2022-12-03T23:40:11.331Z,15.78
2022-12-03T23:42:44.802Z,18.67
2022-12-03T23:45:18.579Z,23.47
2022-12-03T23:47:57.919Z,19.90
2022-12-03T23:50:27.150Z,21.27
2022-12-03T23:53:00.764Z,18.57
2022-12-03T23:55:34.599Z,14.20
2022-12-03T23:58:08.095Z,17.45
